sensor_id;sensor_type;location;lat;lon;timestamp;pressure;altitude;pressure_sealevel;temperature;humidity
54022;BME280;39936;51.058;17.220;2023-04-30T00:02:04;101840.12;;;9.13;94.30
54022;BME280;39936;51.058;17.220;2023-04-30T00:06:21;101839.37;;;9.11;95.49
54022;BME280;39936;51.058;17.220;2023-04-30T00:10:19;101848.14;;;9.09;95.65
54022;BME280;39936;51.058;17.220;2023-04-30T00:14:20;101852.74;;;9.05;95.66
54022;BME280;39936;51.058;17.220;2023-04-30T00:17:41;101840.08;;;8.95;95.82
54022;BME280;39936;51.058;17.220;2023-04-30T00:21:43;101854.95;;;9.02;96.15
54022;BME280;39936;51.058;17.220;2023-04-30T00:29:20;101858.48;;;8.98;97.54
54022;BME280;39936;51.058;17.220;2023-04-30T00:33:36;101859.03;;;8.94;97.47
54022;BME280;39936;51.058;17.220;2023-04-30T00:37:22;101854.77;;;8.94;97.10
54022;BME280;39936;51.058;17.220;2023-04-30T00:41:23;101861.59;;;8.89;96.84
54022;BME280;39936;51.058;17.220;2023-04-30T00:45:03;101869.98;;;8.93;96.63
54022;BME280;39936;51.058;17.220;2023-04-30T00:48:56;101868.16;;;8.90;96.33
54022;BME280;39936;51.058;17.220;2023-04-30T00:53:12;101875.80;;;8.87;95.27
54022;BME280;39936;51.058;17.220;2023-04-30T00:56:53;101881.88;;;8.91;94.82
54022;BME280;39936;51.058;17.220;2023-04-30T01:01:06;101882.27;;;8.89;95.21
54022;BME280;39936;51.058;17.220;2023-04-30T01:05:17;101888.79;;;8.89;95.71
54022;BME280;39936;51.058;17.220;2023-04-30T01:08:40;101891.41;;;8.85;95.66
54022;BME280;39936;51.058;17.220;2023-04-30T01:16:29;101897.69;;;8.79;96.34
54022;BME280;39936;51.058;17.220;2023-04-30T01:20:41;101894.36;;;8.76;96.81
54022;BME280;39936;51.058;17.220;2023-04-30T01:28:56;101903.37;;;8.67;97.24
54022;BME280;39936;51.058;17.220;2023-04-30T01:32:30;101902.59;;;8.65;97.66
54022;BME280;39936;51.058;17.220;2023-04-30T01:44:35;101911.95;;;8.59;97.90
54022;BME280;39936;51.058;17.220;2023-04-30T01:52:49;101911.43;;;8.50;98.06
54022;BME280;39936;51.058;17.220;2023-04-30T01:56:35;101914.46;;;8.50;98.41
54022;BME280;39936;51.058;17.220;2023-04-30T01:59:54;101921.04;;;8.44;98.12
54022;BME280;39936;51.058;17.220;2023-04-30T02:03:28;101926.44;;;8.38;98.03
54022;BME280;39936;51.058;17.220;2023-04-30T02:06:48;101928.23;;;8.34;98.24
54022;BME280;39936;51.058;17.220;2023-04-30T02:10:13;101932.00;;;8.27;98.28
54022;BME280;39936;51.058;17.220;2023-04-30T02:13:52;101930.95;;;8.20;98.39
54022;BME280;39936;51.058;17.220;2023-04-30T02:17:50;101908.27;;;8.00;98.35
54022;BME280;39936;51.058;17.220;2023-04-30T02:21:41;101933.24;;;8.07;98.43
54022;BME280;39936;51.058;17.220;2023-04-30T02:25:31;101938.05;;;8.06;98.33
54022;BME280;39936;51.058;17.220;2023-04-30T02:29:02;101938.91;;;7.99;98.19
54022;BME280;39936;51.058;17.220;2023-04-30T02:32:32;101948.02;;;7.91;98.48
54022;BME280;39936;51.058;17.220;2023-04-30T02:36:39;101925.19;;;7.68;98.60
54022;BME280;39936;51.058;17.220;2023-04-30T02:40:22;101947.66;;;7.71;99.10
54022;BME280;39936;51.058;17.220;2023-04-30T02:44:05;101950.69;;;7.62;99.69
54022;BME280;39936;51.058;17.220;2023-04-30T02:47:25;101954.65;;;7.53;99.77
54022;BME280;39936;51.058;17.220;2023-04-30T02:51:03;101960.23;;;7.45;100.00
54022;BME280;39936;51.058;17.220;2023-04-30T02:55:28;101960.84;;;7.41;100.00
54022;BME280;39936;51.058;17.220;2023-04-30T03:03:17;101933.80;;;7.19;100.00
54022;BME280;39936;51.058;17.220;2023-04-30T03:06:56;101972.07;;;7.34;100.00
54022;BME280;39936;51.058;17.220;2023-04-30T03:10:44;101976.10;;;7.25;100.00
54022;BME280;39936;51.058;17.220;2023-04-30T03:14:38;101980.19;;;7.21;100.00
54022;BME280;39936;51.058;17.220;2023-04-30T03:18:18;101981.58;;;7.18;100.00
54022;BME280;39936;51.058;17.220;2023-04-30T03:21:55;101987.91;;;7.12;100.00
54022;BME280;39936;51.058;17.220;2023-04-30T03:29:30;101988.34;;;6.96;100.00
54022;BME280;39936;51.058;17.220;2023-04-30T03:32:58;101994.69;;;6.94;100.00
54022;BME280;39936;51.058;17.220;2023-04-30T03:37:10;101991.83;;;6.89;100.00
54022;BME280;39936;51.058;17.220;2023-04-30T03:41:42;101999.45;;;6.88;100.00
54022;BME280;39936;51.058;17.220;2023-04-30T03:45:27;102002.56;;;7.00;100.00
54022;BME280;39936;51.058;17.220;2023-04-30T03:49:05;102005.56;;;7.17;100.00
54022;BME280;39936;51.058;17.220;2023-04-30T03:52:26;102005.93;;;7.37;100.00
54022;BME280;39936;51.058;17.220;2023-04-30T03:56:24;101990.10;;;7.46;100.00
54022;BME280;39936;51.058;17.220;2023-04-30T04:04:34;102024.87;;;8.03;94.49
54022;BME280;39936;51.058;17.220;2023-04-30T04:08:28;102032.52;;;8.28;92.37
54022;BME280;39936;51.058;17.220;2023-04-30T04:12:08;102037.67;;;8.54;90.74
54022;BME280;39936;51.058;17.220;2023-04-30T04:15:31;102026.84;;;8.74;88.26
54022;BME280;39936;51.058;17.220;2023-04-30T04:19:11;102038.36;;;8.96;87.34
54022;BME280;39936;51.058;17.220;2023-04-30T04:23:26;102047.99;;;9.18;86.53
54022;BME280;39936;51.058;17.220;2023-04-30T04:34:55;102064.14;;;9.58;82.24
54022;BME280;39936;51.058;17.220;2023-04-30T04:38:28;102064.45;;;9.59;80.85
54022;BME280;39936;51.058;17.220;2023-04-30T04:42:43;102072.91;;;9.21;80.93
54022;BME280;39936;51.058;17.220;2023-04-30T04:46:14;102079.95;;;8.81;83.88
54022;BME280;39936;51.058;17.220;2023-04-30T04:49:57;102076.75;;;8.49;84.87
54022;BME280;39936;51.058;17.220;2023-04-30T04:53:36;102095.25;;;8.47;86.07
54022;BME280;39936;51.058;17.220;2023-04-30T04:57:39;102103.60;;;8.33;87.46
54022;BME280;39936;51.058;17.220;2023-04-30T05:01:13;102110.82;;;8.23;86.90
54022;BME280;39936;51.058;17.220;2023-04-30T05:04:35;102113.05;;;8.15;88.48
54022;BME280;39936;51.058;17.220;2023-04-30T05:08:12;102116.70;;;8.02;88.50
54022;BME280;39936;51.058;17.220;2023-04-30T05:11:55;102127.66;;;7.97;89.11
54022;BME280;39936;51.058;17.220;2023-04-30T05:16:10;102129.03;;;7.96;89.99
54022;BME280;39936;51.058;17.220;2023-04-30T05:19:53;102135.48;;;8.00;89.58
54022;BME280;39936;51.058;17.220;2023-04-30T05:24:00;102132.67;;;7.93;90.29
54022;BME280;39936;51.058;17.220;2023-04-30T05:27:42;102140.19;;;7.95;89.28
54022;BME280;39936;51.058;17.220;2023-04-30T05:31:07;102139.14;;;7.93;88.96
54022;BME280;39936;51.058;17.220;2023-04-30T05:34:31;102140.87;;;7.96;90.66
54022;BME280;39936;51.058;17.220;2023-04-30T05:37:54;102109.65;;;7.80;89.60
54022;BME280;39936;51.058;17.220;2023-04-30T05:41:34;102144.58;;;8.12;89.55
54022;BME280;39936;51.058;17.220;2023-04-30T05:44:55;102147.26;;;8.16;88.10
54022;BME280;39936;51.058;17.220;2023-04-30T05:49:05;102150.91;;;8.14;88.88
54022;BME280;39936;51.058;17.220;2023-04-30T05:52:37;102149.95;;;8.23;88.46
54022;BME280;39936;51.058;17.220;2023-04-30T05:56:29;102153.13;;;8.44;89.02
54022;BME280;39936;51.058;17.220;2023-04-30T06:00:00;102152.92;;;8.62;87.31
54022;BME280;39936;51.058;17.220;2023-04-30T06:07:28;102156.27;;;8.71;88.76
54022;BME280;39936;51.058;17.220;2023-04-30T06:10:46;102155.91;;;8.88;87.05
54022;BME280;39936;51.058;17.220;2023-04-30T06:14:42;102162.30;;;9.00;86.46
54022;BME280;39936;51.058;17.220;2023-04-30T06:18:16;102164.66;;;9.02;84.39
54022;BME280;39936;51.058;17.220;2023-04-30T06:22:10;102171.20;;;9.06;84.18
54022;BME280;39936;51.058;17.220;2023-04-30T06:26:20;102174.95;;;9.31;82.25
54022;BME280;39936;51.058;17.220;2023-04-30T06:34:13;102166.13;;;9.66;81.25
54022;BME280;39936;51.058;17.220;2023-04-30T06:37:29;102169.23;;;9.69;78.69
54022;BME280;39936;51.058;17.220;2023-04-30T06:41:39;102165.25;;;9.86;78.17
54022;BME280;39936;51.058;17.220;2023-04-30T06:46:04;102166.39;;;10.03;79.39
54022;BME280;39936;51.058;17.220;2023-04-30T06:49:23;102161.66;;;10.08;76.61
54022;BME280;39936;51.058;17.220;2023-04-30T06:53:17;102169.16;;;9.95;76.62
54022;BME280;39936;51.058;17.220;2023-04-30T06:56:35;102174.29;;;9.93;77.22
54022;BME280;39936;51.058;17.220;2023-04-30T07:03:53;102178.10;;;9.85;77.36
54022;BME280;39936;51.058;17.220;2023-04-30T07:07:47;102179.19;;;10.11;76.37
54022;BME280;39936;51.058;17.220;2023-04-30T07:11:31;102185.98;;;10.26;73.56
54022;BME280;39936;51.058;17.220;2023-04-30T07:14:52;102152.35;;;10.16;73.21
54022;BME280;39936;51.058;17.220;2023-04-30T07:18:43;102184.29;;;10.47;73.67
54022;BME280;39936;51.058;17.220;2023-04-30T07:26:19;102190.78;;;10.72;69.23
54022;BME280;39936;51.058;17.220;2023-04-30T07:30:15;102194.06;;;10.76;70.49
54022;BME280;39936;51.058;17.220;2023-04-30T07:33:41;102177.02;;;10.79;71.73
54022;BME280;39936;51.058;17.220;2023-04-30T07:37:03;102191.94;;;10.97;71.62
54022;BME280;39936;51.058;17.220;2023-04-30T07:40:45;102205.91;;;10.96;67.75
54022;BME280;39936;51.058;17.220;2023-04-30T07:44:05;102204.46;;;10.70;69.91
54022;BME280;39936;51.058;17.220;2023-04-30T07:47:44;102200.84;;;10.56;69.99
54022;BME280;39936;51.058;17.220;2023-04-30T07:51:05;102204.71;;;10.80;69.40
54022;BME280;39936;51.058;17.220;2023-04-30T07:55:26;102206.99;;;10.93;67.13
54022;BME280;39936;51.058;17.220;2023-04-30T07:58:56;102213.80;;;11.23;67.44
54022;BME280;39936;51.058;17.220;2023-04-30T08:06:39;102212.98;;;11.40;68.85
54022;BME280;39936;51.058;17.220;2023-04-30T08:10:07;102223.67;;;11.02;70.24
54022;BME280;39936;51.058;17.220;2023-04-30T08:13:48;102217.95;;;10.79;71.91
54022;BME280;39936;51.058;17.220;2023-04-30T08:17:09;102219.80;;;10.51;69.79
54022;BME280;39936;51.058;17.220;2023-04-30T08:20:30;102222.05;;;10.25;72.39
54022;BME280;39936;51.058;17.220;2023-04-30T08:24:10;102217.55;;;10.21;73.73
54022;BME280;39936;51.058;17.220;2023-04-30T08:27:54;102219.35;;;10.36;71.82
54022;BME280;39936;51.058;17.220;2023-04-30T08:31:19;102219.87;;;10.42;71.39
54022;BME280;39936;51.058;17.220;2023-04-30T08:34:46;102216.67;;;10.65;71.08
54022;BME280;39936;51.058;17.220;2023-04-30T08:38:07;102223.22;;;10.76;71.19
54022;BME280;39936;51.058;17.220;2023-04-30T08:41:36;102220.91;;;10.76;70.63
54022;BME280;39936;51.058;17.220;2023-04-30T08:45:10;102215.75;;;10.96;70.35
54022;BME280;39936;51.058;17.220;2023-04-30T08:48:46;102225.86;;;10.87;67.79
54022;BME280;39936;51.058;17.220;2023-04-30T08:52:30;102228.93;;;11.09;64.37
54022;BME280;39936;51.058;17.220;2023-04-30T08:56:12;102196.43;;;10.77;65.14
54022;BME280;39936;51.058;17.220;2023-04-30T08:59:49;102194.79;;;10.70;65.74
54022;BME280;39936;51.058;17.220;2023-04-30T09:03:57;102209.06;;;10.90;63.45
54022;BME280;39936;51.058;17.220;2023-04-30T09:07:36;102204.19;;;10.97;60.40
54022;BME280;39936;51.058;17.220;2023-04-30T09:11:28;102238.00;;;11.28;57.85
54022;BME280;39936;51.058;17.220;2023-04-30T09:15:32;102236.17;;;11.35;60.01
54022;BME280;39936;51.058;17.220;2023-04-30T09:23:03;102237.18;;;11.91;53.80
54022;BME280;39936;51.058;17.220;2023-04-30T09:27:28;102258.25;;;11.98;52.75
54022;BME280;39936;51.058;17.220;2023-04-30T09:31:19;102224.79;;;11.68;52.83
54022;BME280;39936;51.058;17.220;2023-04-30T09:35:36;102252.68;;;12.00;54.22
54022;BME280;39936;51.058;17.220;2023-04-30T09:38:49;102231.75;;;12.02;56.54
54022;BME280;39936;51.058;17.220;2023-04-30T09:42:31;102244.67;;;11.87;55.36
54022;BME280;39936;51.058;17.220;2023-04-30T09:45:53;102251.52;;;11.96;54.92
54022;BME280;39936;51.058;17.220;2023-04-30T09:50:18;102242.21;;;11.85;55.17
54022;BME280;39936;51.058;17.220;2023-04-30T09:53:57;102238.47;;;11.96;57.50
54022;BME280;39936;51.058;17.220;2023-04-30T09:58:09;102239.69;;;11.76;54.40
54022;BME280;39936;51.058;17.220;2023-04-30T10:01:52;102237.36;;;11.76;55.17
54022;BME280;39936;51.058;17.220;2023-04-30T10:05:42;102232.98;;;12.01;53.83
54022;BME280;39936;51.058;17.220;2023-04-30T10:13:21;102228.91;;;12.10;52.59
54022;BME280;39936;51.058;17.220;2023-04-30T10:17:20;102228.52;;;12.07;51.44
54022;BME280;39936;51.058;17.220;2023-04-30T10:21:18;102217.55;;;12.03;51.86
54022;BME280;39936;51.058;17.220;2023-04-30T10:25:14;102219.87;;;12.27;50.01
54022;BME280;39936;51.058;17.220;2023-04-30T10:32:46;102224.50;;;12.29;47.31
54022;BME280;39936;51.058;17.220;2023-04-30T10:36:36;102215.67;;;12.30;48.52
54022;BME280;39936;51.058;17.220;2023-04-30T10:39:53;102211.91;;;12.40;49.90
54022;BME280;39936;51.058;17.220;2023-04-30T10:43:30;102217.03;;;12.32;48.49
54022;BME280;39936;51.058;17.220;2023-04-30T10:47:00;102211.43;;;12.26;48.93
54022;BME280;39936;51.058;17.220;2023-04-30T10:50:55;102209.84;;;12.37;51.08
54022;BME280;39936;51.058;17.220;2023-04-30T10:54:37;102195.76;;;12.30;51.07
54022;BME280;39936;51.058;17.220;2023-04-30T10:58:29;102194.90;;;12.46;50.38
54022;BME280;39936;51.058;17.220;2023-04-30T11:01:58;102200.13;;;12.71;49.23
54022;BME280;39936;51.058;17.220;2023-04-30T11:05:37;102196.82;;;12.68;48.71
54022;BME280;39936;51.058;17.220;2023-04-30T11:09:13;102201.98;;;12.59;51.05
54022;BME280;39936;51.058;17.220;2023-04-30T11:13:14;102189.11;;;12.72;51.55
54022;BME280;39936;51.058;17.220;2023-04-30T11:17:02;102201.64;;;12.91;48.88
54022;BME280;39936;51.058;17.220;2023-04-30T11:20:25;102191.49;;;12.92;47.68
54022;BME280;39936;51.058;17.220;2023-04-30T11:23:48;102196.96;;;12.98;49.30
54022;BME280;39936;51.058;17.220;2023-04-30T11:27:55;102200.91;;;13.07;47.04
54022;BME280;39936;51.058;17.220;2023-04-30T11:31:15;102194.59;;;13.06;45.33
54022;BME280;39936;51.058;17.220;2023-04-30T11:35:20;102200.94;;;12.93;47.29
54022;BME280;39936;51.058;17.220;2023-04-30T11:39:11;102191.34;;;12.81;47.72
54022;BME280;39936;51.058;17.220;2023-04-30T11:42:54;102202.32;;;13.05;45.75
54022;BME280;39936;51.058;17.220;2023-04-30T11:46:48;102199.69;;;12.89;47.69
54022;BME280;39936;51.058;17.220;2023-04-30T11:51:04;102191.98;;;13.06;46.29
54022;BME280;39936;51.058;17.220;2023-04-30T11:55:24;102195.45;;;13.14;46.55
54022;BME280;39936;51.058;17.220;2023-04-30T11:59:39;102184.79;;;13.17;45.32
54022;BME280;39936;51.058;17.220;2023-04-30T12:03:25;102195.94;;;13.43;43.04
54022;BME280;39936;51.058;17.220;2023-04-30T12:07:47;102171.67;;;13.05;45.23
54022;BME280;39936;51.058;17.220;2023-04-30T12:11:38;102198.76;;;13.05;44.49
54022;BME280;39936;51.058;17.220;2023-04-30T12:16:06;102205.28;;;13.24;45.54
54022;BME280;39936;51.058;17.220;2023-04-30T12:19:35;102193.60;;;13.46;45.76
54022;BME280;39936;51.058;17.220;2023-04-30T12:23:16;102193.33;;;13.42;44.27
54022;BME280;39936;51.058;17.220;2023-04-30T12:26:55;102182.70;;;13.50;45.52
54022;BME280;39936;51.058;17.220;2023-04-30T12:31:10;102190.24;;;13.54;44.16
54022;BME280;39936;51.058;17.220;2023-04-30T12:35:06;102183.51;;;13.55;41.11
54022;BME280;39936;51.058;17.220;2023-04-30T12:42:39;102179.25;;;13.40;42.08
54022;BME280;39936;51.058;17.220;2023-04-30T12:46:07;102184.69;;;13.57;43.02
54022;BME280;39936;51.058;17.220;2023-04-30T12:49:40;102180.42;;;13.65;41.00
54022;BME280;39936;51.058;17.220;2023-04-30T12:53:44;102176.19;;;13.56;41.66
54022;BME280;39936;51.058;17.220;2023-04-30T12:57:09;102175.65;;;13.42;40.41
54022;BME280;39936;51.058;17.220;2023-04-30T13:00:47;102169.96;;;13.65;42.60
54022;BME280;39936;51.058;17.220;2023-04-30T13:04:27;102163.02;;;13.77;40.51
54022;BME280;39936;51.058;17.220;2023-04-30T13:12:04;102162.09;;;13.75;39.96
54022;BME280;39936;51.058;17.220;2023-04-30T13:15:44;102161.80;;;13.86;40.06
54022;BME280;39936;51.058;17.220;2023-04-30T13:19:24;102134.32;;;13.48;35.76
54022;BME280;39936;51.058;17.220;2023-04-30T13:23:05;102171.04;;;13.82;37.54
54022;BME280;39936;51.058;17.220;2023-04-30T13:26:57;102172.17;;;13.97;38.76
54022;BME280;39936;51.058;17.220;2023-04-30T13:30:16;102168.10;;;13.81;37.71
54022;BME280;39936;51.058;17.220;2023-04-30T13:33:56;102165.69;;;13.74;39.45
54022;BME280;39936;51.058;17.220;2023-04-30T13:37:16;102172.34;;;13.86;38.09
54022;BME280;39936;51.058;17.220;2023-04-30T13:41:00;102161.48;;;13.83;38.16
54022;BME280;39936;51.058;17.220;2023-04-30T13:44:48;102165.08;;;13.80;37.76
54022;BME280;39936;51.058;17.220;2023-04-30T13:48:56;102156.85;;;13.72;38.68
54022;BME280;39936;51.058;17.220;2023-04-30T13:52:36;102169.82;;;13.90;38.16
54022;BME280;39936;51.058;17.220;2023-04-30T13:57:02;102159.86;;;13.66;38.72
54022;BME280;39936;51.058;17.220;2023-04-30T14:00:32;102150.94;;;13.74;41.36
54022;BME280;39936;51.058;17.220;2023-04-30T14:03:52;102157.93;;;13.85;39.66
54022;BME280;39936;51.058;17.220;2023-04-30T14:07:11;102153.74;;;13.90;38.32
54022;BME280;39936;51.058;17.220;2023-04-30T14:10:43;102140.97;;;13.96;38.38
54022;BME280;39936;51.058;17.220;2023-04-30T14:14:01;102135.03;;;14.03;39.03
54022;BME280;39936;51.058;17.220;2023-04-30T14:18:26;102143.74;;;13.99;39.33
54022;BME280;39936;51.058;17.220;2023-04-30T14:22:03;102133.48;;;14.02;38.34
54022;BME280;39936;51.058;17.220;2023-04-30T14:26:24;102105.71;;;13.79;39.18
54022;BME280;39936;51.058;17.220;2023-04-30T14:29:42;102136.53;;;14.11;42.07
54022;BME280;39936;51.058;17.220;2023-04-30T14:33:08;102130.35;;;14.15;40.29
54022;BME280;39936;51.058;17.220;2023-04-30T14:37:08;102126.68;;;14.08;40.30
54022;BME280;39936;51.058;17.220;2023-04-30T14:40:49;102131.22;;;14.06;38.67
54022;BME280;39936;51.058;17.220;2023-04-30T14:44:28;102131.39;;;14.03;39.84
54022;BME280;39936;51.058;17.220;2023-04-30T14:48:33;102141.05;;;13.91;39.81
54022;BME280;39936;51.058;17.220;2023-04-30T14:52:32;102127.02;;;13.77;40.09
54022;BME280;39936;51.058;17.220;2023-04-30T14:55:52;102138.57;;;13.74;40.86
54022;BME280;39936;51.058;17.220;2023-04-30T14:59:26;102139.06;;;14.01;40.58
54022;BME280;39936;51.058;17.220;2023-04-30T15:02:46;102132.19;;;14.13;40.32
54022;BME280;39936;51.058;17.220;2023-04-30T15:06:21;102119.77;;;14.06;40.34
54022;BME280;39936;51.058;17.220;2023-04-30T15:10:06;102124.65;;;14.14;39.50
54022;BME280;39936;51.058;17.220;2023-04-30T15:13:29;102122.93;;;14.10;40.30
54022;BME280;39936;51.058;17.220;2023-04-30T15:17:08;102120.63;;;14.21;40.52
54022;BME280;39936;51.058;17.220;2023-04-30T15:20:28;102128.01;;;14.21;38.78
54022;BME280;39936;51.058;17.220;2023-04-30T15:23:50;102131.39;;;14.16;38.41
54022;BME280;39936;51.058;17.220;2023-04-30T15:27:45;102118.16;;;13.99;38.53
54022;BME280;39936;51.058;17.220;2023-04-30T15:34:56;102119.25;;;14.21;39.82
54022;BME280;39936;51.058;17.220;2023-04-30T15:39:10;102122.56;;;14.30;38.22
54022;BME280;39936;51.058;17.220;2023-04-30T15:42:52;102124.79;;;14.22;39.55
54022;BME280;39936;51.058;17.220;2023-04-30T15:46:42;102124.34;;;14.22;38.87
54022;BME280;39936;51.058;17.220;2023-04-30T15:50:20;102113.71;;;14.27;38.70
54022;BME280;39936;51.058;17.220;2023-04-30T15:54:28;102117.77;;;14.05;38.78
54022;BME280;39936;51.058;17.220;2023-04-30T15:57:47;102114.77;;;13.88;38.89
54022;BME280;39936;51.058;17.220;2023-04-30T16:01:20;102117.55;;;13.91;41.23
54022;BME280;39936;51.058;17.220;2023-04-30T16:04:59;102125.71;;;14.02;40.73
54022;BME280;39936;51.058;17.220;2023-04-30T16:08:53;102113.37;;;13.96;40.28
54022;BME280;39936;51.058;17.220;2023-04-30T16:12:12;102113.66;;;14.01;39.56
54022;BME280;39936;51.058;17.220;2023-04-30T16:15:31;102111.27;;;13.97;41.04
54022;BME280;39936;51.058;17.220;2023-04-30T16:18:53;102111.85;;;13.80;42.27
54022;BME280;39936;51.058;17.220;2023-04-30T16:23:14;102106.82;;;13.75;42.88
54022;BME280;39936;51.058;17.220;2023-04-30T16:26:47;102112.53;;;13.66;43.29
54022;BME280;39936;51.058;17.220;2023-04-30T16:30:04;102107.55;;;13.55;43.77
54022;BME280;39936;51.058;17.220;2023-04-30T16:33:21;102106.65;;;13.60;44.44
54022;BME280;39936;51.058;17.220;2023-04-30T16:37:13;102118.63;;;13.26;43.38
54022;BME280;39936;51.058;17.220;2023-04-30T16:41:06;102114.97;;;13.25;43.62
54022;BME280;39936;51.058;17.220;2023-04-30T16:44:57;102111.47;;;13.16;43.13
54022;BME280;39936;51.058;17.220;2023-04-30T16:49:00;102108.23;;;13.24;44.32
54022;BME280;39936;51.058;17.220;2023-04-30T16:56:33;102112.37;;;13.18;42.85
54022;BME280;39936;51.058;17.220;2023-04-30T16:59:55;102122.73;;;13.13;43.50
54022;BME280;39936;51.058;17.220;2023-04-30T17:03:16;102124.29;;;13.14;43.24
54022;BME280;39936;51.058;17.220;2023-04-30T17:07:08;102125.09;;;13.13;43.64
54022;BME280;39936;51.058;17.220;2023-04-30T17:11:30;102095.97;;;12.70;44.17
54022;BME280;39936;51.058;17.220;2023-04-30T17:14:47;102128.72;;;13.23;43.89
54022;BME280;39936;51.058;17.220;2023-04-30T17:18:31;102126.41;;;12.82;43.46
54022;BME280;39936;51.058;17.220;2023-04-30T17:21:49;102128.52;;;12.81;44.43
54022;BME280;39936;51.058;17.220;2023-04-30T17:25:08;102143.98;;;12.74;44.15
54022;BME280;39936;51.058;17.220;2023-04-30T17:28:56;102142.32;;;12.90;44.30
54022;BME280;39936;51.058;17.220;2023-04-30T17:32:35;102140.43;;;13.11;44.01
54022;BME280;39936;51.058;17.220;2023-04-30T17:36:20;102146.66;;;13.31;43.73
54022;BME280;39936;51.058;17.220;2023-04-30T17:40:03;102147.03;;;13.34;43.67
54022;BME280;39936;51.058;17.220;2023-04-30T17:44:03;102149.84;;;12.94;44.28
54022;BME280;39936;51.058;17.220;2023-04-30T17:47:20;102148.20;;;12.79;44.84
54022;BME280;39936;51.058;17.220;2023-04-30T17:50:36;102150.50;;;12.48;45.63
54022;BME280;39936;51.058;17.220;2023-04-30T17:53:50;102152.13;;;12.31;46.27
54022;BME280;39936;51.058;17.220;2023-04-30T17:57:11;102143.79;;;12.15;46.38
54022;BME280;39936;51.058;17.220;2023-04-30T18:00:52;102150.11;;;11.93;47.02
54022;BME280;39936;51.058;17.220;2023-04-30T18:04:36;102151.17;;;11.75;47.24
54022;BME280;39936;51.058;17.220;2023-04-30T18:08:17;102124.46;;;11.38;47.84
54022;BME280;39936;51.058;17.220;2023-04-30T18:11:55;102151.98;;;11.33;47.98
54022;BME280;39936;51.058;17.220;2023-04-30T18:15:36;102155.72;;;11.24;48.38
54022;BME280;39936;51.058;17.220;2023-04-30T18:18:55;102163.62;;;11.06;48.93
54022;BME280;39936;51.058;17.220;2023-04-30T18:22:30;102167.72;;;10.87;49.69
54022;BME280;39936;51.058;17.220;2023-04-30T18:26:02;102172.76;;;10.57;51.09
54022;BME280;39936;51.058;17.220;2023-04-30T18:29:31;102173.56;;;10.42;51.38
54022;BME280;39936;51.058;17.220;2023-04-30T18:33:19;102145.01;;;10.07;52.06
54022;BME280;39936;51.058;17.220;2023-04-30T18:36:58;102175.38;;;10.17;52.06
54022;BME280;39936;51.058;17.220;2023-04-30T18:40:39;102181.10;;;10.08;52.76
54022;BME280;39936;51.058;17.220;2023-04-30T18:45:01;102187.36;;;10.00;52.93
54022;BME280;39936;51.058;17.220;2023-04-30T18:48:43;102188.31;;;9.94;52.76
54022;BME280;39936;51.058;17.220;2023-04-30T18:51:58;102186.86;;;9.89;53.11
54022;BME280;39936;51.058;17.220;2023-04-30T18:55:15;102193.48;;;9.84;52.89
54022;BME280;39936;51.058;17.220;2023-04-30T18:58:48;102190.45;;;9.78;53.63
54022;BME280;39936;51.058;17.220;2023-04-30T19:02:24;102196.06;;;9.65;54.32
54022;BME280;39936;51.058;17.220;2023-04-30T19:06:02;102195.99;;;9.58;54.12
54022;BME280;39936;51.058;17.220;2023-04-30T19:09:34;102180.16;;;9.28;54.31
54022;BME280;39936;51.058;17.220;2023-04-30T19:13:10;102212.73;;;9.37;54.33
54022;BME280;39936;51.058;17.220;2023-04-30T19:17:15;102217.01;;;9.18;55.05
54022;BME280;39936;51.058;17.220;2023-04-30T19:21:06;102217.95;;;8.89;56.37
54022;BME280;39936;51.058;17.220;2023-04-30T19:24:33;102213.52;;;8.59;57.42
54022;BME280;39936;51.058;17.220;2023-04-30T19:28:01;102218.05;;;8.47;57.94
54022;BME280;39936;51.058;17.220;2023-04-30T19:31:21;102221.75;;;8.37;58.24
54022;BME280;39936;51.058;17.220;2023-04-30T19:35:00;102189.51;;;8.02;59.00
54022;BME280;39936;51.058;17.220;2023-04-30T19:38:32;102225.90;;;8.04;59.98
54022;BME280;39936;51.058;17.220;2023-04-30T19:42:26;102229.46;;;7.86;59.88
54022;BME280;39936;51.058;17.220;2023-04-30T19:46:20;102218.59;;;7.60;60.80
54022;BME280;39936;51.058;17.220;2023-04-30T19:54:09;102231.45;;;7.29;61.83
54022;BME280;39936;51.058;17.220;2023-04-30T19:57:59;102243.34;;;7.14;62.23
54022;BME280;39936;51.058;17.220;2023-04-30T20:01:29;102251.28;;;6.97;63.50
54022;BME280;39936;51.058;17.220;2023-04-30T20:05:11;102248.42;;;6.78;63.12
54022;BME280;39936;51.058;17.220;2023-04-30T20:09:02;102252.86;;;6.62;63.86
54022;BME280;39936;51.058;17.220;2023-04-30T20:12:21;102226.60;;;6.29;66.02
54022;BME280;39936;51.058;17.220;2023-04-30T20:16:09;102256.02;;;6.31;68.35
54022;BME280;39936;51.058;17.220;2023-04-30T20:19:53;102239.22;;;6.03;68.65
54022;BME280;39936;51.058;17.220;2023-04-30T20:23:41;102264.71;;;6.09;69.23
54022;BME280;39936;51.058;17.220;2023-04-30T20:27:43;102230.70;;;5.78;70.26
54022;BME280;39936;51.058;17.220;2023-04-30T20:31:28;102266.44;;;5.88;70.37
54022;BME280;39936;51.058;17.220;2023-04-30T20:35:32;102272.24;;;5.72;70.23
54022;BME280;39936;51.058;17.220;2023-04-30T20:39:18;102280.84;;;5.61;71.08
54022;BME280;39936;51.058;17.220;2023-04-30T20:42:50;102281.46;;;5.50;72.01
54022;BME280;39936;51.058;17.220;2023-04-30T20:46:47;102283.19;;;5.41;73.35
54022;BME280;39936;51.058;17.220;2023-04-30T20:50:45;102289.11;;;5.35;75.44